createdAt,value
2023-04-23T00:01:28.595Z,3.38
2023-04-23T00:04:16.119Z,3.30
2023-04-23T00:07:02.544Z,3.53
2023-04-23T00:09:48.857Z,3.30
2023-04-23T00:12:34.300Z,3.20
2023-04-23T00:15:22.563Z,3.20
2023-04-23T00:18:08.107Z,3.45
2023-04-23T00:20:53.388Z,3.25
2023-04-23T00:23:39.329Z,3.55
2023-04-23T00:26:24.792Z,3.10
2023-04-23T00:29:09.791Z,3.35
2023-04-23T00:31:55.120Z,3.10
2023-04-23T00:34:41.145Z,3.20
2023-04-23T00:37:26.834Z,3.38
2023-04-23T00:40:12.455Z,3.10
2023-04-23T00:42:58.118Z,3.65
2023-04-23T00:45:43.354Z,3.28
2023-04-23T00:48:29.138Z,3.00
2023-04-23T00:51:16.289Z,3.35
2023-04-23T00:54:01.817Z,3.07
2023-04-23T00:56:47.328Z,3.10
2023-04-23T00:59:32.800Z,3.13
2023-04-23T01:02:17.979Z,3.08
2023-04-23T01:05:05.160Z,3.00
2023-04-23T01:07:50.779Z,3.10
2023-04-23T01:10:35.747Z,3.35
2023-04-23T01:13:22.542Z,3.50
2023-04-23T01:16:08.626Z,2.90
2023-04-23T01:18:53.864Z,3.00
2023-04-23T01:21:41.577Z,3.10
2023-04-23T01:24:27.988Z,3.35
2023-04-23T01:27:13.175Z,3.40
2023-04-23T01:29:58.685Z,3.08
2023-04-23T01:32:45.022Z,3.10
2023-04-23T01:35:30.842Z,2.90
2023-04-23T01:38:17.103Z,2.92
2023-04-23T01:41:02.602Z,3.17
2023-04-23T01:43:47.902Z,3.17
2023-04-23T01:46:35.267Z,2.83
2023-04-23T01:49:20.727Z,2.90
2023-04-23T01:52:06.243Z,2.85
2023-04-23T01:54:51.659Z,2.90
2023-04-23T01:57:37.537Z,2.90
2023-04-23T02:00:22.479Z,3.00
2023-04-23T02:03:07.972Z,3.17
2023-04-23T02:05:53.826Z,2.72
2023-04-23T02:08:39.397Z,2.75
2023-04-23T02:11:25.026Z,2.90
2023-04-23T02:14:10.692Z,3.22
2023-04-23T02:16:58.065Z,2.70
2023-04-23T02:19:43.093Z,2.55
2023-04-23T02:22:28.491Z,2.95
2023-04-23T02:25:16.039Z,2.72
2023-04-23T02:28:05.819Z,3.00
2023-04-23T02:30:51.255Z,2.80
2023-04-23T02:33:36.570Z,3.13
2023-04-23T02:36:21.934Z,2.90
2023-04-23T02:39:07.100Z,3.03
2023-04-23T02:41:52.163Z,2.85
2023-04-23T02:44:37.500Z,3.07
2023-04-23T02:47:22.508Z,2.70
2023-04-23T02:50:08.109Z,2.95
2023-04-23T02:52:53.614Z,2.90
2023-04-23T02:55:38.990Z,3.00
2023-04-23T02:58:24.720Z,2.83
2023-04-23T03:01:12.331Z,2.92
2023-04-23T03:03:58.370Z,2.58
2023-04-23T03:06:43.923Z,2.67
2023-04-23T03:09:28.942Z,2.72
2023-04-23T03:12:13.762Z,2.80
2023-04-23T03:14:58.692Z,2.72
2023-04-23T03:17:45.813Z,2.65
2023-04-23T03:20:31.543Z,2.90
2023-04-23T03:23:17.182Z,2.88
2023-04-23T03:26:04.206Z,2.80
2023-04-23T03:28:49.222Z,2.70
2023-04-23T03:31:34.172Z,2.80
2023-04-23T03:34:19.658Z,2.83
2023-04-23T03:37:05.775Z,2.92
2023-04-23T03:39:52.943Z,2.90
2023-04-23T03:42:38.479Z,2.90
2023-04-23T03:45:24.896Z,2.85
2023-04-23T03:48:09.930Z,3.00
2023-04-23T03:50:55.050Z,2.90
2023-04-23T03:53:55.195Z,2.67
2023-04-23T03:57:09.863Z,2.85
2023-04-23T04:00:01.038Z,3.00
2023-04-23T04:02:47.199Z,2.83
2023-04-23T04:05:32.607Z,2.72
2023-04-23T04:08:17.730Z,2.80
2023-04-23T04:11:02.925Z,2.83
2023-04-23T04:13:48.131Z,3.17
2023-04-23T04:16:33.231Z,2.63
2023-04-23T04:19:18.649Z,2.65
2023-04-23T04:22:03.874Z,2.70
2023-04-23T04:24:52.082Z,2.92
2023-04-23T04:27:37.667Z,2.75
2023-04-23T04:30:24.053Z,2.72
2023-04-23T04:33:09.035Z,2.50
2023-04-23T04:35:54.801Z,2.30
2023-04-23T04:38:40.017Z,2.70
2023-04-23T04:41:25.967Z,2.63
2023-04-23T04:44:11.195Z,2.60
2023-04-23T04:46:56.856Z,2.65
2023-04-23T04:49:41.931Z,2.70
2023-04-23T04:52:27.558Z,2.58
2023-04-23T04:55:12.709Z,2.80
2023-04-23T04:57:57.768Z,2.65
2023-04-23T05:00:43.584Z,2.70
2023-04-23T05:03:28.932Z,2.47
2023-04-23T05:06:14.188Z,2.60
2023-04-23T05:08:59.978Z,2.40
2023-04-23T05:11:45.149Z,2.58
2023-04-23T05:14:30.285Z,2.20
2023-04-23T05:17:15.777Z,2.47
2023-04-23T05:20:01.108Z,2.45
2023-04-23T05:22:46.728Z,2.50
2023-04-23T05:25:32.319Z,2.60
2023-04-23T05:28:18.126Z,2.72
2023-04-23T05:31:03.340Z,2.60
2023-04-23T05:33:50.539Z,2.67
2023-04-23T05:36:36.514Z,2.53
2023-04-23T05:39:21.565Z,2.40
2023-04-23T05:42:06.605Z,2.35
2023-04-23T05:44:52.516Z,2.40
2023-04-23T05:47:37.931Z,2.58
2023-04-23T05:50:23.197Z,2.35
2023-04-23T05:53:08.500Z,2.38
2023-04-23T05:55:53.759Z,2.35
2023-04-23T05:58:39.204Z,2.60
2023-04-23T06:01:24.778Z,2.00
2023-04-23T06:04:10.151Z,2.25
2023-04-23T06:06:55.265Z,2.63
2023-04-23T06:09:40.195Z,2.40
2023-04-23T06:12:25.176Z,2.40
2023-04-23T06:15:11.315Z,2.60
2023-04-23T06:17:56.859Z,2.38
2023-04-23T06:20:42.598Z,2.42
2023-04-23T06:23:27.629Z,2.40
2023-04-23T06:26:12.387Z,2.40
2023-04-23T06:28:57.740Z,2.22
2023-04-23T06:31:42.701Z,2.60
2023-04-23T06:34:27.847Z,2.38
2023-04-23T06:37:12.793Z,2.10
2023-04-23T06:39:58.524Z,2.13
2023-04-23T06:42:45.426Z,2.20
2023-04-23T06:45:50.744Z,2.35
2023-04-23T06:48:37.607Z,2.20
2023-04-23T06:51:25.687Z,2.10
2023-04-23T06:54:10.735Z,2.10
2023-04-23T06:56:56.894Z,2.22
2023-04-23T06:59:41.756Z,2.30
2023-04-23T07:02:26.854Z,2.40
2023-04-23T07:05:12.442Z,2.28
2023-04-23T07:07:57.678Z,2.33
2023-04-23T07:10:42.909Z,2.50
2023-04-23T07:13:27.948Z,2.20
2023-04-23T07:16:13.191Z,2.20
2023-04-23T07:18:58.143Z,2.33
2023-04-23T07:21:43.904Z,2.30
2023-04-23T07:24:28.987Z,2.15
2023-04-23T07:27:13.887Z,2.30
2023-04-23T07:29:58.750Z,2.15
2023-04-23T07:32:43.871Z,2.60
2023-04-23T07:35:29.584Z,2.40
2023-04-23T07:38:14.964Z,2.10
2023-04-23T07:41:00.020Z,2.08
2023-04-23T07:43:45.274Z,2.30
2023-04-23T07:46:31.100Z,2.15
2023-04-23T07:49:16.518Z,2.20
2023-04-23T07:52:01.516Z,2.33
2023-04-23T07:54:46.768Z,2.20
2023-04-23T07:57:32.354Z,2.28
2023-04-23T08:00:17.897Z,2.10
2023-04-23T08:03:03.272Z,2.10
2023-04-23T08:05:48.774Z,2.38
2023-04-23T08:08:34.106Z,2.10
2023-04-23T08:11:19.448Z,3.00
2023-04-23T08:14:04.972Z,3.47
2023-04-23T08:16:50.429Z,3.03
2023-04-23T08:19:35.675Z,3.20
2023-04-23T08:22:22.043Z,2.88
2023-04-23T08:25:07.719Z,2.83
2023-04-23T08:27:53.205Z,2.97
2023-04-23T08:30:39.166Z,2.70
2023-04-23T08:33:24.292Z,2.55
2023-04-23T08:36:09.566Z,2.78
2023-04-23T08:38:55.221Z,2.67
2023-04-23T08:41:42.908Z,2.70
2023-04-23T08:44:42.095Z,2.77
2023-04-23T08:47:28.100Z,2.60
2023-04-23T08:50:14.394Z,2.70
2023-04-23T08:52:59.471Z,2.80
2023-04-23T08:55:45.411Z,2.80
2023-04-23T08:58:31.251Z,2.73
2023-04-23T09:01:17.410Z,2.72
2023-04-23T09:04:03.301Z,2.35
2023-04-23T09:06:48.597Z,2.55
2023-04-23T09:09:34.041Z,2.47
2023-04-23T09:12:20.737Z,2.50
2023-04-23T09:15:11.902Z,2.20
2023-04-23T09:17:58.469Z,2.80
2023-04-23T09:20:44.518Z,2.53
2023-04-23T09:23:31.819Z,2.50
2023-04-23T09:26:23.536Z,2.27
2023-04-23T09:29:13.038Z,2.20
2023-04-23T09:32:04.494Z,2.63
2023-04-23T09:34:55.978Z,2.33
2023-04-23T09:37:41.911Z,2.22
2023-04-23T09:40:27.760Z,2.30
2023-04-23T09:43:13.238Z,2.10
2023-04-23T09:45:58.891Z,2.20
2023-04-23T09:48:44.779Z,2.50
2023-04-23T09:51:30.938Z,2.47
2023-04-23T09:54:23.734Z,2.10
2023-04-23T09:57:08.856Z,2.33
2023-04-23T10:00:07.379Z,2.60
2023-04-23T10:02:59.583Z,2.30
2023-04-23T10:06:00.580Z,2.20
2023-04-23T10:08:47.544Z,2.20
2023-04-23T10:11:32.986Z,2.35
2023-04-23T10:14:18.064Z,2.20
2023-04-23T10:17:04.905Z,2.03
2023-04-23T10:19:50.297Z,2.22
2023-04-23T10:22:36.062Z,1.90
2023-04-23T10:25:22.663Z,1.98
2023-04-23T10:28:09.153Z,2.38
2023-04-23T10:30:54.634Z,2.22
2023-04-23T10:33:53.563Z,1.88
2023-04-23T10:36:41.586Z,2.30
2023-04-23T10:39:32.086Z,1.90
2023-04-23T10:42:18.001Z,2.30
2023-04-23T10:45:20.359Z,2.10
2023-04-23T10:48:08.926Z,2.10
2023-04-23T10:51:09.496Z,2.27
2023-04-23T10:54:04.488Z,2.08
2023-04-23T10:56:57.648Z,2.00
2023-04-23T10:59:52.900Z,2.00
2023-04-23T11:02:47.191Z,2.33
2023-04-23T11:05:35.237Z,2.00
2023-04-23T11:08:21.016Z,2.40
2023-04-23T11:11:09.601Z,2.10
2023-04-23T11:13:54.943Z,2.15
2023-04-23T11:16:40.570Z,1.88
2023-04-23T11:19:25.766Z,1.80
2023-04-23T11:22:15.164Z,1.85
2023-04-23T11:25:01.836Z,2.20
2023-04-23T11:27:47.441Z,2.17
2023-04-23T11:30:33.937Z,1.65
2023-04-23T11:33:19.183Z,2.10
2023-04-23T11:36:04.360Z,1.73
2023-04-23T11:38:50.110Z,2.10
2023-04-23T11:41:35.518Z,1.90
2023-04-23T11:44:21.253Z,1.90
2023-04-23T11:47:13.376Z,2.20
2023-04-23T11:50:01.355Z,1.83
2023-04-23T11:52:46.873Z,2.00
2023-04-23T11:55:32.192Z,1.90
2023-04-23T11:58:18.121Z,1.98
2023-04-23T12:01:03.926Z,1.93
2023-04-23T12:03:49.649Z,1.88
2023-04-23T12:06:35.136Z,2.20
2023-04-23T12:09:21.582Z,2.10
2023-04-23T12:12:06.850Z,1.95
2023-04-23T12:14:51.716Z,2.27
2023-04-23T12:17:36.884Z,1.80
2023-04-23T12:20:22.290Z,1.92
2023-04-23T12:23:08.443Z,1.90
2023-04-23T12:25:54.845Z,2.10
2023-04-23T12:28:52.556Z,1.80
2023-04-23T12:31:39.056Z,1.85
2023-04-23T12:34:23.972Z,2.22
2023-04-23T12:37:08.820Z,1.80
2023-04-23T12:39:56.682Z,2.17
2023-04-23T12:42:42.192Z,1.80
2023-04-23T12:45:36.510Z,1.90
2023-04-23T12:48:21.749Z,2.00
2023-04-23T12:51:06.795Z,1.90
2023-04-23T12:53:51.951Z,2.00
2023-04-23T12:56:37.863Z,2.33
2023-04-23T12:59:23.411Z,1.90
2023-04-23T13:02:09.291Z,2.05
2023-04-23T13:05:00.232Z,2.00
2023-04-23T13:07:45.058Z,2.00
2023-04-23T13:10:30.949Z,1.93
2023-04-23T13:13:16.290Z,2.08
2023-04-23T13:16:02.323Z,2.00
2023-04-23T13:18:48.358Z,1.88
2023-04-23T13:21:33.431Z,1.98
2023-04-23T13:24:18.823Z,1.80
2023-04-23T13:27:04.372Z,1.98
2023-04-23T13:29:49.417Z,2.00
2023-04-23T13:32:34.570Z,1.80
2023-04-23T13:35:20.337Z,2.10
2023-04-23T13:38:05.456Z,2.00
2023-04-23T13:40:50.707Z,1.80
2023-04-23T13:43:35.837Z,1.90
2023-04-23T13:46:21.194Z,2.10
2023-04-23T13:49:06.295Z,1.90
2023-04-23T13:51:54.049Z,2.00
2023-04-23T13:54:40.063Z,1.80
2023-04-23T13:57:25.241Z,2.00
2023-04-23T14:00:12.146Z,1.95
2023-04-23T14:02:57.539Z,2.00
2023-04-23T14:05:42.769Z,1.73
2023-04-23T14:08:28.135Z,1.88
2023-04-23T14:11:13.396Z,1.80
2023-04-23T14:14:00.799Z,2.08
2023-04-23T14:16:46.060Z,1.90
2023-04-23T14:19:34.529Z,1.93
2023-04-23T14:22:19.642Z,1.75
2023-04-23T14:25:25.667Z,1.90
2023-04-23T14:28:37.113Z,1.98
2023-04-23T14:31:21.962Z,2.03
2023-04-23T14:34:07.743Z,1.80
2023-04-23T14:36:53.232Z,1.73
2023-04-23T14:39:38.714Z,1.80
2023-04-23T14:42:24.322Z,1.60
2023-04-23T14:45:09.951Z,1.60
2023-04-23T14:47:55.243Z,1.73
2023-04-23T14:50:40.386Z,1.80
2023-04-23T14:53:25.356Z,1.63
2023-04-23T14:56:10.352Z,1.70
2023-04-23T14:58:55.371Z,1.80
2023-04-23T15:01:40.494Z,1.60
2023-04-23T15:04:25.862Z,1.90
2023-04-23T15:07:10.886Z,2.22
2023-04-23T15:09:55.997Z,2.20
2023-04-23T15:12:41.502Z,2.65
2023-04-23T15:15:44.472Z,1.83
2023-04-23T15:18:30.698Z,1.95
2023-04-23T15:21:15.774Z,1.90
2023-04-23T15:24:00.993Z,1.90
2023-04-23T15:26:46.322Z,1.60
2023-04-23T15:29:31.712Z,1.57
2023-04-23T15:32:16.653Z,1.67
2023-04-23T15:35:01.877Z,1.80
2023-04-23T15:37:47.029Z,1.90
2023-04-23T15:40:33.435Z,2.00
2023-04-23T15:43:18.874Z,2.00
2023-04-23T15:46:03.812Z,1.65
2023-04-23T15:48:49.139Z,2.13
2023-04-23T15:51:34.180Z,1.75
2023-04-23T15:54:19.787Z,2.15
2023-04-23T15:57:04.974Z,1.90
2023-04-23T15:59:50.314Z,2.10
2023-04-23T16:02:35.844Z,1.80
2023-04-23T16:05:21.085Z,1.80
2023-04-23T16:08:06.202Z,1.90
2023-04-23T16:10:51.556Z,1.50
2023-04-23T16:13:36.701Z,1.77
2023-04-23T16:16:22.500Z,1.80
2023-04-23T16:19:11.032Z,1.90
2023-04-23T16:21:56.034Z,1.60
2023-04-23T16:24:41.192Z,1.67
2023-04-23T16:27:26.708Z,1.85
2023-04-23T16:30:12.011Z,2.05
2023-04-23T16:32:57.111Z,2.00
2023-04-23T16:35:42.447Z,1.95
2023-04-23T16:38:27.350Z,1.70
2023-04-23T16:41:15.302Z,1.70
2023-04-23T16:44:00.945Z,1.52
2023-04-23T16:46:46.291Z,1.50
2023-04-23T16:49:31.977Z,1.48
2023-04-23T16:52:17.255Z,1.70
2023-04-23T16:55:02.256Z,1.83
2023-04-23T16:57:48.141Z,1.80
2023-04-23T17:00:33.596Z,1.50
2023-04-23T17:03:21.821Z,1.83
2023-04-23T17:06:27.311Z,1.90
2023-04-23T17:09:12.386Z,1.63
2023-04-23T17:11:59.439Z,1.80
2023-04-23T17:14:44.905Z,1.50
2023-04-23T17:17:30.301Z,1.60
2023-04-23T17:20:16.024Z,1.77
2023-04-23T17:23:04.773Z,1.70
2023-04-23T17:25:49.932Z,1.70
2023-04-23T17:28:34.960Z,1.75
2023-04-23T17:31:20.219Z,1.80
2023-04-23T17:34:05.275Z,1.50
2023-04-23T17:36:50.933Z,1.88
2023-04-23T17:39:35.888Z,2.10
2023-04-23T17:42:21.015Z,2.28
2023-04-23T17:45:06.701Z,2.30
2023-04-23T17:47:52.087Z,2.47
2023-04-23T17:50:37.591Z,2.10
2023-04-23T17:53:22.930Z,2.15
2023-04-23T17:56:08.347Z,2.20
2023-04-23T17:58:53.681Z,2.63
2023-04-23T18:01:38.672Z,3.57
2023-04-23T18:04:24.523Z,2.55
2023-04-23T18:07:10.004Z,2.72
2023-04-23T18:09:55.254Z,2.40
2023-04-23T18:12:40.744Z,2.30
2023-04-23T18:15:26.315Z,2.40
2023-04-23T18:18:11.486Z,2.30
2023-04-23T18:20:57.065Z,2.50
2023-04-23T18:23:42.311Z,2.50
2023-04-23T18:26:27.867Z,2.30
2023-04-23T18:29:14.346Z,2.43
2023-04-23T18:32:00.028Z,2.45
2023-04-23T18:34:45.068Z,2.55
2023-04-23T18:37:38.090Z,2.60
2023-04-23T18:40:23.909Z,2.60
2023-04-23T18:43:09.259Z,2.73
2023-04-23T18:45:54.349Z,2.60
2023-04-23T18:48:45.258Z,2.30
2023-04-23T18:51:33.193Z,2.30
2023-04-23T18:54:18.482Z,2.65
2023-04-23T18:57:03.481Z,2.60
2023-04-23T18:59:48.960Z,2.45
2023-04-23T19:02:36.004Z,2.97
2023-04-23T19:05:21.615Z,2.92
2023-04-23T19:08:07.066Z,2.33
2023-04-23T19:10:52.162Z,2.70
2023-04-23T19:13:37.035Z,2.58
2023-04-23T19:16:22.202Z,2.47
2023-04-23T19:19:07.373Z,2.50
2023-04-23T19:21:52.696Z,2.53
2023-04-23T19:24:38.326Z,2.50
2023-04-23T19:27:23.190Z,2.40
2023-04-23T19:30:10.201Z,2.53
2023-04-23T19:32:55.932Z,2.58
2023-04-23T19:35:41.100Z,2.60
2023-04-23T19:38:26.261Z,2.50
2023-04-23T19:41:11.774Z,2.47
2023-04-23T19:43:56.984Z,2.35
2023-04-23T19:46:41.949Z,2.40
2023-04-23T19:49:27.624Z,2.63
2023-04-23T19:52:17.207Z,2.30
2023-04-23T19:55:02.861Z,2.30
2023-04-23T19:57:47.866Z,2.40
2023-04-23T20:00:35.220Z,2.63
2023-04-23T20:03:21.046Z,2.60
2023-04-23T20:06:06.507Z,2.53
2023-04-23T20:09:07.882Z,2.30
2023-04-23T20:11:53.134Z,2.35
2023-04-23T20:14:38.737Z,2.60
2023-04-23T20:17:26.487Z,3.25
2023-04-23T20:20:11.903Z,3.30
2023-04-23T20:22:56.943Z,3.40
2023-04-23T20:25:42.400Z,3.20
2023-04-23T20:28:27.788Z,3.20
2023-04-23T20:31:12.812Z,3.10
2023-04-23T20:33:58.083Z,3.73
2023-04-23T20:36:43.215Z,3.78
2023-04-23T20:39:28.610Z,3.50
2023-04-23T20:42:14.236Z,3.78
2023-04-23T20:45:00.620Z,3.70
2023-04-23T20:47:46.980Z,3.60
2023-04-23T20:50:33.327Z,3.60
2023-04-23T20:53:18.281Z,4.30
2023-04-23T20:56:03.400Z,3.78
2023-04-23T20:58:48.881Z,4.00
2023-04-23T21:01:34.394Z,3.60
2023-04-23T21:04:19.374Z,3.90
2023-04-23T21:07:04.547Z,3.90
2023-04-23T21:09:50.088Z,3.72
2023-04-23T21:12:35.278Z,3.78
2023-04-23T21:15:21.056Z,16.87
2023-04-23T21:18:06.371Z,51.60
2023-04-23T21:20:51.347Z,19.17
2023-04-23T21:23:37.748Z,19.58
2023-04-23T21:26:23.497Z,56.63
2023-04-23T21:29:08.650Z,30.40
2023-04-23T21:31:53.796Z,19.88
2023-04-23T21:34:38.884Z,24.27
2023-04-23T21:37:23.926Z,70.85
2023-04-23T21:40:10.495Z,29.73
2023-04-23T21:42:55.929Z,27.40
2023-04-23T21:45:41.437Z,26.48
2023-04-23T21:48:26.458Z,49.33
2023-04-23T21:51:11.652Z,33.97
2023-04-23T21:53:57.189Z,29.17
2023-04-23T21:56:42.360Z,23.63
2023-04-23T21:59:27.204Z,27.08
2023-04-23T22:02:12.635Z,29.70
2023-04-23T22:04:58.046Z,27.23
2023-04-23T22:07:43.413Z,27.58
2023-04-23T22:10:28.697Z,26.03
2023-04-23T22:13:14.670Z,26.55
2023-04-23T22:15:59.978Z,25.83
2023-04-23T22:18:45.356Z,26.15
2023-04-23T22:21:31.216Z,25.10
2023-04-23T22:24:16.821Z,25.60
2023-04-23T22:27:02.098Z,26.27
2023-04-23T22:29:47.659Z,27.83
2023-04-23T22:32:33.041Z,27.75
2023-04-23T22:35:18.913Z,26.42
2023-04-23T22:38:03.973Z,25.87
2023-04-23T22:40:49.006Z,24.73
2023-04-23T22:43:34.579Z,24.50
2023-04-23T22:46:20.084Z,24.88
2023-04-23T22:49:08.174Z,24.77
2023-04-23T22:51:53.067Z,22.40
2023-04-23T22:54:38.559Z,24.23
2023-04-23T22:57:24.083Z,23.02
2023-04-23T23:00:11.337Z,21.95
2023-04-23T23:02:56.570Z,23.25
2023-04-23T23:05:41.755Z,22.07
2023-04-23T23:08:26.943Z,21.48
2023-04-23T23:11:12.360Z,22.35
2023-04-23T23:13:57.498Z,20.50
2023-04-23T23:16:42.898Z,21.30
2023-04-23T23:19:28.058Z,21.23
2023-04-23T23:22:18.767Z,21.20
2023-04-23T23:25:05.854Z,21.10
2023-04-23T23:27:51.384Z,22.08
2023-04-23T23:30:36.769Z,20.77
2023-04-23T23:33:22.353Z,19.33
2023-04-23T23:36:08.555Z,21.35
2023-04-23T23:38:53.547Z,19.83
2023-04-23T23:41:38.649Z,18.27
2023-04-23T23:44:23.526Z,18.98
2023-04-23T23:47:08.486Z,19.30
2023-04-23T23:49:53.656Z,19.23
2023-04-23T23:52:38.815Z,19.92
2023-04-23T23:55:23.825Z,18.42
2023-04-23T23:58:08.967Z,18.23
